sensor_id;sensor_type;location;lat;lon;timestamp;P1;durP1;ratioP1;P2;durP2;ratioP2
25263;SDS011;13211;51.796;5.808;2022-08-23T00:03:37;9.43;;;3.10;;
25263;SDS011;13211;51.796;5.808;2022-08-23T00:06:07;9.37;;;2.90;;
25263;SDS011;13211;51.796;5.808;2022-08-23T00:08:36;11.32;;;2.97;;
25263;SDS011;13211;51.796;5.808;2022-08-23T00:11:30;11.77;;;3.60;;
25263;SDS011;13211;51.796;5.808;2022-08-23T00:14:14;10.02;;;3.42;;
25263;SDS011;13211;51.796;5.808;2022-08-23T00:16:46;7.75;;;3.45;;
25263;SDS011;13211;51.796;5.808;2022-08-23T00:19:14;6.78;;;3.08;;
25263;SDS011;13211;51.796;5.808;2022-08-23T00:21:43;8.87;;;3.40;;
25263;SDS011;13211;51.796;5.808;2022-08-23T00:24:12;8.23;;;3.55;;
25263;SDS011;13211;51.796;5.808;2022-08-23T00:26:48;7.03;;;3.30;;
25263;SDS011;13211;51.796;5.808;2022-08-23T00:29:47;9.02;;;3.13;;
25263;SDS011;13211;51.796;5.808;2022-08-23T00:32:18;6.88;;;3.13;;
25263;SDS011;13211;51.796;5.808;2022-08-23T00:34:58;9.00;;;3.28;;
25263;SDS011;13211;51.796;5.808;2022-08-23T00:37:27;9.43;;;3.30;;
25263;SDS011;13211;51.796;5.808;2022-08-23T00:39:58;11.20;;;3.53;;
25263;SDS011;13211;51.796;5.808;2022-08-23T00:42:32;7.90;;;3.35;;
25263;SDS011;13211;51.796;5.808;2022-08-23T00:48:36;7.82;;;3.28;;
25263;SDS011;13211;51.796;5.808;2022-08-23T00:51:10;10.80;;;3.45;;
25263;SDS011;13211;51.796;5.808;2022-08-23T00:53:52;10.98;;;3.53;;
25263;SDS011;13211;51.796;5.808;2022-08-23T00:56:22;6.47;;;3.30;;
25263;SDS011;13211;51.796;5.808;2022-08-23T00:58:53;9.40;;;3.35;;
25263;SDS011;13211;51.796;5.808;2022-08-23T01:01:22;8.85;;;3.20;;
25263;SDS011;13211;51.796;5.808;2022-08-23T01:03:53;9.25;;;3.42;;
25263;SDS011;13211;51.796;5.808;2022-08-23T01:06:32;7.00;;;3.47;;
25263;SDS011;13211;51.796;5.808;2022-08-23T01:09:07;6.80;;;3.20;;
25263;SDS011;13211;51.796;5.808;2022-08-23T01:11:41;10.32;;;3.63;;
25263;SDS011;13211;51.796;5.808;2022-08-23T01:14:35;8.60;;;3.10;;
25263;SDS011;13211;51.796;5.808;2022-08-23T01:17:11;12.55;;;4.38;;
25263;SDS011;13211;51.796;5.808;2022-08-23T01:20:09;10.60;;;3.70;;
25263;SDS011;13211;51.796;5.808;2022-08-23T01:22:53;11.02;;;3.97;;
25263;SDS011;13211;51.796;5.808;2022-08-23T01:25:28;9.23;;;3.55;;
25263;SDS011;13211;51.796;5.808;2022-08-23T01:27:59;8.73;;;3.40;;
25263;SDS011;13211;51.796;5.808;2022-08-23T01:30:29;6.25;;;3.33;;
25263;SDS011;13211;51.796;5.808;2022-08-23T01:33:00;8.32;;;3.75;;
25263;SDS011;13211;51.796;5.808;2022-08-23T01:35:39;7.15;;;3.22;;
25263;SDS011;13211;51.796;5.808;2022-08-23T01:38:09;9.43;;;3.53;;
25263;SDS011;13211;51.796;5.808;2022-08-23T01:40:39;10.73;;;3.72;;
25263;SDS011;13211;51.796;5.808;2022-08-23T01:43:09;9.73;;;3.83;;
25263;SDS011;13211;51.796;5.808;2022-08-23T01:45:40;6.43;;;3.58;;
25263;SDS011;13211;51.796;5.808;2022-08-23T01:50:38;5.72;;;3.60;;
25263;SDS011;13211;51.796;5.808;2022-08-23T01:53:08;12.82;;;4.20;;
25263;SDS011;13211;51.796;5.808;2022-08-23T01:55:41;7.20;;;3.40;;
25263;SDS011;13211;51.796;5.808;2022-08-23T01:58:09;7.90;;;3.90;;
25263;SDS011;13211;51.796;5.808;2022-08-23T02:00:39;8.85;;;3.90;;
25263;SDS011;13211;51.796;5.808;2022-08-23T02:03:11;9.00;;;3.97;;
25263;SDS011;13211;51.796;5.808;2022-08-23T02:05:39;9.15;;;4.30;;
25263;SDS011;13211;51.796;5.808;2022-08-23T02:11:05;139.05;;;7.30;;
25263;SDS011;13211;51.796;5.808;2022-08-23T02:13:36;8.07;;;3.63;;
25263;SDS011;13211;51.796;5.808;2022-08-23T02:16:05;12.23;;;4.00;;
25263;SDS011;13211;51.796;5.808;2022-08-23T02:18:33;6.93;;;3.60;;
25263;SDS011;13211;51.796;5.808;2022-08-23T02:21:01;16.83;;;4.68;;
25263;SDS011;13211;51.796;5.808;2022-08-23T02:23:29;10.88;;;4.18;;
25263;SDS011;13211;51.796;5.808;2022-08-23T02:26:01;6.78;;;4.00;;
25263;SDS011;13211;51.796;5.808;2022-08-23T02:28:29;8.27;;;3.88;;
25263;SDS011;13211;51.796;5.808;2022-08-23T02:30:58;7.53;;;4.03;;
25263;SDS011;13211;51.796;5.808;2022-08-23T02:33:29;8.15;;;4.18;;
25263;SDS011;13211;51.796;5.808;2022-08-23T02:35:58;9.70;;;3.88;;
25263;SDS011;13211;51.796;5.808;2022-08-23T02:38:27;7.82;;;4.03;;
25263;SDS011;13211;51.796;5.808;2022-08-23T02:40:55;8.50;;;3.97;;
25263;SDS011;13211;51.796;5.808;2022-08-23T02:43:29;7.93;;;4.28;;
25263;SDS011;13211;51.796;5.808;2022-08-23T02:45:58;5.93;;;3.85;;
25263;SDS011;13211;51.796;5.808;2022-08-23T02:48:27;13.20;;;4.25;;
25263;SDS011;13211;51.796;5.808;2022-08-23T02:51:04;5.78;;;3.80;;
25263;SDS011;13211;51.796;5.808;2022-08-23T02:53:33;7.80;;;4.28;;
25263;SDS011;13211;51.796;5.808;2022-08-23T02:56:05;8.90;;;4.45;;
25263;SDS011;13211;51.796;5.808;2022-08-23T02:58:49;8.52;;;4.63;;
25263;SDS011;13211;51.796;5.808;2022-08-23T03:01:23;12.15;;;4.90;;
25263;SDS011;13211;51.796;5.808;2022-08-23T03:04:02;7.90;;;4.53;;
25263;SDS011;13211;51.796;5.808;2022-08-23T03:06:31;8.88;;;4.38;;
25263;SDS011;13211;51.796;5.808;2022-08-23T03:09:02;11.80;;;4.82;;
25263;SDS011;13211;51.796;5.808;2022-08-23T03:11:31;12.80;;;4.88;;
25263;SDS011;13211;51.796;5.808;2022-08-23T03:14:01;11.23;;;4.03;;
25263;SDS011;13211;51.796;5.808;2022-08-23T03:16:32;11.95;;;4.63;;
25263;SDS011;13211;51.796;5.808;2022-08-23T03:19:01;10.07;;;4.25;;
25263;SDS011;13211;51.796;5.808;2022-08-23T03:21:29;8.98;;;4.20;;
25263;SDS011;13211;51.796;5.808;2022-08-23T03:24:02;6.00;;;3.78;;
25263;SDS011;13211;51.796;5.808;2022-08-23T03:26:40;11.48;;;4.63;;
25263;SDS011;13211;51.796;5.808;2022-08-23T03:29:09;11.50;;;4.70;;
25263;SDS011;13211;51.796;5.808;2022-08-23T03:31:55;12.02;;;5.38;;
25263;SDS011;13211;51.796;5.808;2022-08-23T03:34:23;9.30;;;4.55;;
25263;SDS011;13211;51.796;5.808;2022-08-23T03:36:52;9.60;;;4.90;;
25263;SDS011;13211;51.796;5.808;2022-08-23T03:39:20;10.73;;;4.97;;
25263;SDS011;13211;51.796;5.808;2022-08-23T03:41:47;8.27;;;5.13;;
25263;SDS011;13211;51.796;5.808;2022-08-23T03:44:16;9.57;;;5.55;;
25263;SDS011;13211;51.796;5.808;2022-08-23T03:46:44;9.82;;;5.38;;
25263;SDS011;13211;51.796;5.808;2022-08-23T03:49:12;7.88;;;4.95;;
25263;SDS011;13211;51.796;5.808;2022-08-23T03:51:50;9.68;;;5.60;;
25263;SDS011;13211;51.796;5.808;2022-08-23T03:54:18;12.57;;;5.40;;
25263;SDS011;13211;51.796;5.808;2022-08-23T03:56:54;7.95;;;4.93;;
25263;SDS011;13211;51.796;5.808;2022-08-23T03:59:32;12.52;;;5.07;;
25263;SDS011;13211;51.796;5.808;2022-08-23T04:02:06;8.05;;;4.85;;
25263;SDS011;13211;51.796;5.808;2022-08-23T04:04:38;11.90;;;4.97;;
25263;SDS011;13211;51.796;5.808;2022-08-23T04:07:24;8.38;;;4.97;;
25263;SDS011;13211;51.796;5.808;2022-08-23T04:09:56;9.95;;;4.93;;
25263;SDS011;13211;51.796;5.808;2022-08-23T04:12:29;13.20;;;7.07;;
25263;SDS011;13211;51.796;5.808;2022-08-23T04:14:57;12.15;;;5.70;;
25263;SDS011;13211;51.796;5.808;2022-08-23T04:17:33;16.23;;;6.32;;
25263;SDS011;13211;51.796;5.808;2022-08-23T04:20:03;16.17;;;6.90;;
25263;SDS011;13211;51.796;5.808;2022-08-23T04:22:37;14.43;;;7.40;;
25263;SDS011;13211;51.796;5.808;2022-08-23T04:25:06;13.50;;;7.40;;
25263;SDS011;13211;51.796;5.808;2022-08-23T04:27:54;19.30;;;8.07;;
25263;SDS011;13211;51.796;5.808;2022-08-23T04:30:23;12.68;;;7.47;;
25263;SDS011;13211;51.796;5.808;2022-08-23T04:32:51;14.65;;;8.05;;
25263;SDS011;13211;51.796;5.808;2022-08-23T04:35:21;15.32;;;8.70;;
25263;SDS011;13211;51.796;5.808;2022-08-23T04:37:49;20.65;;;8.98;;
25263;SDS011;13211;51.796;5.808;2022-08-23T04:40:17;20.45;;;9.55;;
25263;SDS011;13211;51.796;5.808;2022-08-23T04:43:04;21.13;;;9.57;;
25263;SDS011;13211;51.796;5.808;2022-08-23T04:45:33;19.08;;;10.90;;
25263;SDS011;13211;51.796;5.808;2022-08-23T04:48:05;16.88;;;9.82;;
25263;SDS011;13211;51.796;5.808;2022-08-23T04:50:45;18.92;;;10.90;;
25263;SDS011;13211;51.796;5.808;2022-08-23T04:53:16;17.95;;;10.98;;
25263;SDS011;13211;51.796;5.808;2022-08-23T04:55:54;17.38;;;11.30;;
25263;SDS011;13211;51.796;5.808;2022-08-23T04:58:21;18.33;;;11.00;;
25263;SDS011;13211;51.796;5.808;2022-08-23T05:00:51;20.25;;;11.10;;
25263;SDS011;13211;51.796;5.808;2022-08-23T05:03:24;20.38;;;12.13;;
25263;SDS011;13211;51.796;5.808;2022-08-23T05:08:31;16.75;;;10.32;;
25263;SDS011;13211;51.796;5.808;2022-08-23T05:11:05;15.98;;;10.50;;
25263;SDS011;13211;51.796;5.808;2022-08-23T05:13:35;22.30;;;9.45;;
25263;SDS011;13211;51.796;5.808;2022-08-23T05:16:06;15.65;;;9.27;;
25263;SDS011;13211;51.796;5.808;2022-08-23T05:18:39;17.88;;;9.70;;
25263;SDS011;13211;51.796;5.808;2022-08-23T05:21:12;24.35;;;9.52;;
25263;SDS011;13211;51.796;5.808;2022-08-23T05:23:43;15.52;;;9.63;;
25263;SDS011;13211;51.796;5.808;2022-08-23T05:26:23;13.55;;;9.57;;
25263;SDS011;13211;51.796;5.808;2022-08-23T05:28:51;17.15;;;10.40;;
25263;SDS011;13211;51.796;5.808;2022-08-23T05:31:25;28.23;;;10.55;;
25263;SDS011;13211;51.796;5.808;2022-08-23T05:33:59;16.00;;;10.60;;
25263;SDS011;13211;51.796;5.808;2022-08-23T05:36:45;17.77;;;9.88;;
25263;SDS011;13211;51.796;5.808;2022-08-23T05:39:31;16.17;;;8.85;;
25263;SDS011;13211;51.796;5.808;2022-08-23T05:42:07;18.52;;;9.50;;
25263;SDS011;13211;51.796;5.808;2022-08-23T05:44:38;20.98;;;9.32;;
25263;SDS011;13211;51.796;5.808;2022-08-23T05:47:09;21.88;;;10.35;;
25263;SDS011;13211;51.796;5.808;2022-08-23T05:49:52;15.60;;;9.88;;
25263;SDS011;13211;51.796;5.808;2022-08-23T05:52:22;20.90;;;9.85;;
25263;SDS011;13211;51.796;5.808;2022-08-23T05:54:50;22.23;;;11.70;;
25263;SDS011;13211;51.796;5.808;2022-08-23T05:57:36;22.48;;;11.18;;
25263;SDS011;13211;51.796;5.808;2022-08-23T06:00:06;16.60;;;11.50;;
25263;SDS011;13211;51.796;5.808;2022-08-23T06:02:56;21.45;;;11.25;;
25263;SDS011;13211;51.796;5.808;2022-08-23T06:05:26;15.85;;;11.38;;
25263;SDS011;13211;51.796;5.808;2022-08-23T06:07:57;18.35;;;12.82;;
25263;SDS011;13211;51.796;5.808;2022-08-23T06:10:27;18.45;;;11.85;;
25263;SDS011;13211;51.796;5.808;2022-08-23T06:13:08;18.25;;;12.45;;
25263;SDS011;13211;51.796;5.808;2022-08-23T06:15:41;20.52;;;12.98;;
25263;SDS011;13211;51.796;5.808;2022-08-23T06:18:10;20.10;;;12.75;;
25263;SDS011;13211;51.796;5.808;2022-08-23T06:20:41;19.02;;;12.45;;
25263;SDS011;13211;51.796;5.808;2022-08-23T06:23:15;21.10;;;12.95;;
25263;SDS011;13211;51.796;5.808;2022-08-23T06:25:43;21.00;;;13.68;;
25263;SDS011;13211;51.796;5.808;2022-08-23T06:28:15;23.00;;;14.10;;
25263;SDS011;13211;51.796;5.808;2022-08-23T06:30:42;21.85;;;13.90;;
25263;SDS011;13211;51.796;5.808;2022-08-23T06:33:20;23.77;;;15.15;;
25263;SDS011;13211;51.796;5.808;2022-08-23T06:36:08;33.13;;;15.02;;
25263;SDS011;13211;51.796;5.808;2022-08-23T06:38:56;29.00;;;15.60;;
25263;SDS011;13211;51.796;5.808;2022-08-23T06:41:57;32.30;;;15.07;;
25263;SDS011;13211;51.796;5.808;2022-08-23T06:45:02;25.17;;;15.40;;
25263;SDS011;13211;51.796;5.808;2022-08-23T06:47:39;29.38;;;15.50;;
25263;SDS011;13211;51.796;5.808;2022-08-23T06:50:07;24.77;;;14.07;;
25263;SDS011;13211;51.796;5.808;2022-08-23T06:52:53;22.02;;;13.88;;
25263;SDS011;13211;51.796;5.808;2022-08-23T06:55:35;19.38;;;13.63;;
25263;SDS011;13211;51.796;5.808;2022-08-23T06:58:26;28.13;;;14.30;;
25263;SDS011;13211;51.796;5.808;2022-08-23T07:04:07;19.13;;;12.73;;
25263;SDS011;13211;51.796;5.808;2022-08-23T07:06:54;22.33;;;13.00;;
25263;SDS011;13211;51.796;5.808;2022-08-23T07:09:22;23.58;;;13.00;;
25263;SDS011;13211;51.796;5.808;2022-08-23T07:11:59;22.83;;;12.60;;
25263;SDS011;13211;51.796;5.808;2022-08-23T07:14:36;22.10;;;12.35;;
25263;SDS011;13211;51.796;5.808;2022-08-23T07:17:04;17.10;;;11.95;;
25263;SDS011;13211;51.796;5.808;2022-08-23T07:19:33;23.08;;;12.65;;
25263;SDS011;13211;51.796;5.808;2022-08-23T07:22:03;20.25;;;12.90;;
25263;SDS011;13211;51.796;5.808;2022-08-23T07:24:31;25.48;;;13.07;;
25263;SDS011;13211;51.796;5.808;2022-08-23T07:27:04;23.95;;;13.52;;
25263;SDS011;13211;51.796;5.808;2022-08-23T07:29:46;27.02;;;13.10;;
25263;SDS011;13211;51.796;5.808;2022-08-23T07:32:14;21.85;;;12.90;;
25263;SDS011;13211;51.796;5.808;2022-08-23T07:34:45;28.80;;;12.77;;
25263;SDS011;13211;51.796;5.808;2022-08-23T07:37:13;22.58;;;13.18;;
25263;SDS011;13211;51.796;5.808;2022-08-23T07:39:44;30.73;;;13.38;;
25263;SDS011;13211;51.796;5.808;2022-08-23T07:42:14;20.90;;;12.70;;
25263;SDS011;13211;51.796;5.808;2022-08-23T07:44:51;22.27;;;11.55;;
25263;SDS011;13211;51.796;5.808;2022-08-23T07:47:21;27.70;;;12.80;;
25263;SDS011;13211;51.796;5.808;2022-08-23T07:49:50;25.15;;;11.95;;
25263;SDS011;13211;51.796;5.808;2022-08-23T07:52:18;19.67;;;11.80;;
25263;SDS011;13211;51.796;5.808;2022-08-23T07:54:45;21.25;;;12.07;;
25263;SDS011;13211;51.796;5.808;2022-08-23T07:57:33;26.55;;;11.65;;
25263;SDS011;13211;51.796;5.808;2022-08-23T08:00:11;26.77;;;11.60;;
25263;SDS011;13211;51.796;5.808;2022-08-23T08:02:50;17.83;;;10.93;;
25263;SDS011;13211;51.796;5.808;2022-08-23T08:05:26;20.85;;;12.10;;
25263;SDS011;13211;51.796;5.808;2022-08-23T08:07:55;22.55;;;11.88;;
25263;SDS011;13211;51.796;5.808;2022-08-23T08:10:23;20.85;;;11.13;;
25263;SDS011;13211;51.796;5.808;2022-08-23T08:12:52;21.13;;;11.02;;
25263;SDS011;13211;51.796;5.808;2022-08-23T08:15:19;23.55;;;12.20;;
25263;SDS011;13211;51.796;5.808;2022-08-23T08:17:57;23.15;;;11.45;;
25263;SDS011;13211;51.796;5.808;2022-08-23T08:20:46;19.65;;;11.18;;
25263;SDS011;13211;51.796;5.808;2022-08-23T08:23:41;18.83;;;11.57;;
25263;SDS011;13211;51.796;5.808;2022-08-23T08:26:37;17.55;;;10.98;;
25263;SDS011;13211;51.796;5.808;2022-08-23T08:29:06;23.08;;;11.32;;
25263;SDS011;13211;51.796;5.808;2022-08-23T08:31:40;19.75;;;10.85;;
25263;SDS011;13211;51.796;5.808;2022-08-23T08:34:10;20.13;;;10.73;;
25263;SDS011;13211;51.796;5.808;2022-08-23T08:36:40;22.13;;;11.00;;
25263;SDS011;13211;51.796;5.808;2022-08-23T08:39:16;22.67;;;11.02;;
25263;SDS011;13211;51.796;5.808;2022-08-23T08:44:34;24.55;;;11.20;;
25263;SDS011;13211;51.796;5.808;2022-08-23T08:50:24;15.90;;;9.18;;
25263;SDS011;13211;51.796;5.808;2022-08-23T08:59:22;19.85;;;9.40;;
25263;SDS011;13211;51.796;5.808;2022-08-23T09:01:54;19.45;;;10.10;;
25263;SDS011;13211;51.796;5.808;2022-08-23T09:04:32;22.63;;;10.35;;
25263;SDS011;13211;51.796;5.808;2022-08-23T09:18:31;19.33;;;8.35;;
25263;SDS011;13211;51.796;5.808;2022-08-23T09:21:02;16.77;;;9.18;;
25263;SDS011;13211;51.796;5.808;2022-08-23T09:23:35;19.13;;;8.32;;
25263;SDS011;13211;51.796;5.808;2022-08-23T09:26:19;20.88;;;7.55;;
25263;SDS011;13211;51.796;5.808;2022-08-23T09:28:50;19.77;;;7.55;;
25263;SDS011;13211;51.796;5.808;2022-08-23T09:34:14;16.20;;;8.77;;
25263;SDS011;13211;51.796;5.808;2022-08-23T09:37:18;19.65;;;10.05;;
25263;SDS011;13211;51.796;5.808;2022-08-23T09:40:12;19.80;;;8.43;;
25263;SDS011;13211;51.796;5.808;2022-08-23T09:42:43;18.70;;;8.85;;
25263;SDS011;13211;51.796;5.808;2022-08-23T09:48:35;15.10;;;6.00;;
25263;SDS011;13211;51.796;5.808;2022-08-23T09:53:47;21.77;;;6.18;;
25263;SDS011;13211;51.796;5.808;2022-08-23T09:56:21;15.82;;;5.20;;
25263;SDS011;13211;51.796;5.808;2022-08-23T09:58:53;16.67;;;5.00;;
25263;SDS011;13211;51.796;5.808;2022-08-23T10:01:36;17.63;;;4.88;;
25263;SDS011;13211;51.796;5.808;2022-08-23T10:07:22;13.23;;;4.00;;
25263;SDS011;13211;51.796;5.808;2022-08-23T10:10:21;14.07;;;4.72;;
25263;SDS011;13211;51.796;5.808;2022-08-23T10:13:02;13.25;;;4.45;;
25263;SDS011;13211;51.796;5.808;2022-08-23T10:16:39;13.43;;;4.72;;
25263;SDS011;13211;51.796;5.808;2022-08-23T10:22:00;16.67;;;6.80;;
25263;SDS011;13211;51.796;5.808;2022-08-23T10:25:10;21.15;;;7.28;;
25263;SDS011;13211;51.796;5.808;2022-08-23T10:30:50;17.50;;;6.20;;
25263;SDS011;13211;51.796;5.808;2022-08-23T10:39:28;11.73;;;6.65;;
25263;SDS011;13211;51.796;5.808;2022-08-23T10:42:05;15.02;;;6.03;;
25263;SDS011;13211;51.796;5.808;2022-08-23T10:47:28;11.98;;;4.18;;
25263;SDS011;13211;51.796;5.808;2022-08-23T10:50:07;10.80;;;2.80;;
25263;SDS011;13211;51.796;5.808;2022-08-23T10:53:00;7.65;;;2.10;;
25263;SDS011;13211;51.796;5.808;2022-08-23T10:55:43;10.20;;;3.30;;
25263;SDS011;13211;51.796;5.808;2022-08-23T10:59:06;13.30;;;3.67;;
25263;SDS011;13211;51.796;5.808;2022-08-23T11:01:44;12.05;;;3.90;;
25263;SDS011;13211;51.796;5.808;2022-08-23T11:04:43;10.60;;;3.28;;
25263;SDS011;13211;51.796;5.808;2022-08-23T11:07:40;7.32;;;2.35;;
25263;SDS011;13211;51.796;5.808;2022-08-23T11:10:16;10.82;;;2.80;;
25263;SDS011;13211;51.796;5.808;2022-08-23T11:12:59;9.43;;;2.20;;
25263;SDS011;13211;51.796;5.808;2022-08-23T11:31:43;11.13;;;1.90;;
25263;SDS011;13211;51.796;5.808;2022-08-23T11:34:41;11.45;;;2.70;;
25263;SDS011;13211;51.796;5.808;2022-08-23T11:37:54;7.28;;;2.03;;
25263;SDS011;13211;51.796;5.808;2022-08-23T11:40:43;6.78;;;1.98;;
25263;SDS011;13211;51.796;5.808;2022-08-23T11:43:29;7.95;;;2.38;;
25263;SDS011;13211;51.796;5.808;2022-08-23T11:46:15;6.95;;;1.75;;
25263;SDS011;13211;51.796;5.808;2022-08-23T11:48:46;7.07;;;1.63;;
25263;SDS011;13211;51.796;5.808;2022-08-23T11:54:11;9.65;;;2.00;;
25263;SDS011;13211;51.796;5.808;2022-08-23T12:00:08;7.28;;;2.17;;
25263;SDS011;13211;51.796;5.808;2022-08-23T12:06:34;15.98;;;2.00;;
25263;SDS011;13211;51.796;5.808;2022-08-23T12:09:47;7.82;;;2.05;;
25263;SDS011;13211;51.796;5.808;2022-08-23T12:12:09;6.68;;;2.00;;
25263;SDS011;13211;51.796;5.808;2022-08-23T12:14:51;5.68;;;1.83;;
25263;SDS011;13211;51.796;5.808;2022-08-23T12:19:57;6.05;;;2.08;;
25263;SDS011;13211;51.796;5.808;2022-08-23T12:25:40;7.03;;;2.38;;
25263;SDS011;13211;51.796;5.808;2022-08-23T12:36:21;11.93;;;2.72;;
25263;SDS011;13211;51.796;5.808;2022-08-23T12:41:52;9.80;;;2.38;;
25263;SDS011;13211;51.796;5.808;2022-08-23T12:44:27;11.93;;;2.30;;
25263;SDS011;13211;51.796;5.808;2022-08-23T12:47:29;8.20;;;2.45;;
25263;SDS011;13211;51.796;5.808;2022-08-23T12:53:15;12.25;;;2.45;;
25263;SDS011;13211;51.796;5.808;2022-08-23T12:56:13;6.28;;;2.10;;
25263;SDS011;13211;51.796;5.808;2022-08-23T12:59:02;6.03;;;2.08;;
25263;SDS011;13211;51.796;5.808;2022-08-23T13:01:33;12.80;;;2.60;;
25263;SDS011;13211;51.796;5.808;2022-08-23T13:04:10;11.23;;;2.10;;
25263;SDS011;13211;51.796;5.808;2022-08-23T13:09:11;4.82;;;1.58;;
25263;SDS011;13211;51.796;5.808;2022-08-23T13:11:42;7.03;;;2.05;;
25263;SDS011;13211;51.796;5.808;2022-08-23T13:14:24;6.30;;;1.98;;
25263;SDS011;13211;51.796;5.808;2022-08-23T13:19:51;11.98;;;1.88;;
25263;SDS011;13211;51.796;5.808;2022-08-23T13:22:31;6.45;;;1.70;;
25263;SDS011;13211;51.796;5.808;2022-08-23T13:27:53;5.90;;;1.73;;
25263;SDS011;13211;51.796;5.808;2022-08-23T13:30:34;6.32;;;1.80;;
25263;SDS011;13211;51.796;5.808;2022-08-23T13:35:46;4.50;;;1.80;;
25263;SDS011;13211;51.796;5.808;2022-08-23T13:38:24;5.03;;;1.63;;
25263;SDS011;13211;51.796;5.808;2022-08-23T13:43:32;6.72;;;1.95;;
25263;SDS011;13211;51.796;5.808;2022-08-23T13:51:32;5.88;;;1.50;;
25263;SDS011;13211;51.796;5.808;2022-08-23T13:54:05;6.60;;;1.25;;
25263;SDS011;13211;51.796;5.808;2022-08-23T13:59:28;4.75;;;1.38;;
25263;SDS011;13211;51.796;5.808;2022-08-23T14:02:02;5.38;;;1.42;;
25263;SDS011;13211;51.796;5.808;2022-08-23T14:04:36;5.63;;;1.50;;
25263;SDS011;13211;51.796;5.808;2022-08-23T14:07:05;3.92;;;1.50;;
25263;SDS011;13211;51.796;5.808;2022-08-23T14:09:33;6.15;;;1.67;;
25263;SDS011;13211;51.796;5.808;2022-08-23T14:12:04;4.22;;;1.30;;
25263;SDS011;13211;51.796;5.808;2022-08-23T14:14:47;4.90;;;1.25;;
25263;SDS011;13211;51.796;5.808;2022-08-23T14:17:15;3.88;;;1.40;;
25263;SDS011;13211;51.796;5.808;2022-08-23T14:19:57;4.85;;;1.13;;
25263;SDS011;13211;51.796;5.808;2022-08-23T14:22:44;4.03;;;1.33;;
25263;SDS011;13211;51.796;5.808;2022-08-23T14:25:12;5.00;;;1.77;;
25263;SDS011;13211;51.796;5.808;2022-08-23T14:27:42;8.57;;;1.77;;
25263;SDS011;13211;51.796;5.808;2022-08-23T14:30:14;4.70;;;1.50;;
25263;SDS011;13211;51.796;5.808;2022-08-23T14:32:58;6.63;;;1.52;;
25263;SDS011;13211;51.796;5.808;2022-08-23T14:35:27;4.35;;;1.50;;
25263;SDS011;13211;51.796;5.808;2022-08-23T14:37:57;4.97;;;1.45;;
25263;SDS011;13211;51.796;5.808;2022-08-23T14:40:43;5.63;;;1.30;;
25263;SDS011;13211;51.796;5.808;2022-08-23T14:43:18;5.18;;;1.10;;
25263;SDS011;13211;51.796;5.808;2022-08-23T14:45:47;6.22;;;1.60;;
25263;SDS011;13211;51.796;5.808;2022-08-23T14:48:16;6.38;;;1.20;;
25263;SDS011;13211;51.796;5.808;2022-08-23T14:50:47;7.05;;;1.65;;
25263;SDS011;13211;51.796;5.808;2022-08-23T14:55:43;3.70;;;1.30;;
25263;SDS011;13211;51.796;5.808;2022-08-23T14:58:11;5.63;;;1.40;;
25263;SDS011;13211;51.796;5.808;2022-08-23T15:00:39;8.98;;;1.33;;
25263;SDS011;13211;51.796;5.808;2022-08-23T15:03:07;5.28;;;1.60;;
25263;SDS011;13211;51.796;5.808;2022-08-23T15:05:36;3.55;;;1.15;;
25263;SDS011;13211;51.796;5.808;2022-08-23T15:08:05;3.85;;;1.50;;
25263;SDS011;13211;51.796;5.808;2022-08-23T15:10:33;9.20;;;1.52;;
25263;SDS011;13211;51.796;5.808;2022-08-23T15:13:22;7.10;;;1.55;;
25263;SDS011;13211;51.796;5.808;2022-08-23T15:15:59;3.55;;;1.20;;
25263;SDS011;13211;51.796;5.808;2022-08-23T15:18:32;3.03;;;1.20;;
25263;SDS011;13211;51.796;5.808;2022-08-23T15:21:01;4.60;;;1.35;;
25263;SDS011;13211;51.796;5.808;2022-08-23T15:23:29;4.90;;;1.30;;
25263;SDS011;13211;51.796;5.808;2022-08-23T15:25:59;8.75;;;1.20;;
25263;SDS011;13211;51.796;5.808;2022-08-23T15:28:27;3.33;;;1.10;;
25263;SDS011;13211;51.796;5.808;2022-08-23T15:30:57;4.93;;;1.40;;
25263;SDS011;13211;51.796;5.808;2022-08-23T15:33:27;7.32;;;1.42;;
25263;SDS011;13211;51.796;5.808;2022-08-23T15:35:58;4.68;;;1.33;;
25263;SDS011;13211;51.796;5.808;2022-08-23T15:38:31;4.65;;;1.40;;
25263;SDS011;13211;51.796;5.808;2022-08-23T15:40:58;9.40;;;1.40;;
25263;SDS011;13211;51.796;5.808;2022-08-23T15:43:26;4.60;;;1.10;;
25263;SDS011;13211;51.796;5.808;2022-08-23T15:46:08;6.28;;;1.48;;
25263;SDS011;13211;51.796;5.808;2022-08-23T15:49:02;4.63;;;1.20;;
25263;SDS011;13211;51.796;5.808;2022-08-23T15:51:45;3.83;;;1.30;;
25263;SDS011;13211;51.796;5.808;2022-08-23T15:54:13;3.25;;;1.20;;
25263;SDS011;13211;51.796;5.808;2022-08-23T15:56:42;5.10;;;1.55;;
25263;SDS011;13211;51.796;5.808;2022-08-23T15:59:14;8.00;;;1.50;;
25263;SDS011;13211;51.796;5.808;2022-08-23T16:01:44;3.28;;;1.25;;
25263;SDS011;13211;51.796;5.808;2022-08-23T16:04:19;3.95;;;1.20;;
25263;SDS011;13211;51.796;5.808;2022-08-23T16:06:47;2.42;;;1.00;;
25263;SDS011;13211;51.796;5.808;2022-08-23T16:09:17;4.57;;;1.25;;
25263;SDS011;13211;51.796;5.808;2022-08-23T16:11:49;5.43;;;1.30;;
25263;SDS011;13211;51.796;5.808;2022-08-23T16:14:26;4.53;;;1.25;;
25263;SDS011;13211;51.796;5.808;2022-08-23T16:16:58;4.40;;;1.55;;
25263;SDS011;13211;51.796;5.808;2022-08-23T16:19:28;2.63;;;1.00;;
25263;SDS011;13211;51.796;5.808;2022-08-23T16:21:59;5.13;;;1.10;;
25263;SDS011;13211;51.796;5.808;2022-08-23T16:27:01;4.07;;;1.38;;
25263;SDS011;13211;51.796;5.808;2022-08-23T16:29:39;7.60;;;1.77;;
25263;SDS011;13211;51.796;5.808;2022-08-23T16:32:07;4.93;;;1.23;;
25263;SDS011;13211;51.796;5.808;2022-08-23T16:34:35;4.55;;;1.40;;
25263;SDS011;13211;51.796;5.808;2022-08-23T16:37:04;5.80;;;1.33;;
25263;SDS011;13211;51.796;5.808;2022-08-23T16:39:36;4.43;;;1.30;;
25263;SDS011;13211;51.796;5.808;2022-08-23T16:42:04;6.45;;;1.27;;
25263;SDS011;13211;51.796;5.808;2022-08-23T16:44:33;2.85;;;1.15;;
25263;SDS011;13211;51.796;5.808;2022-08-23T16:47:03;3.35;;;1.13;;
25263;SDS011;13211;51.796;5.808;2022-08-23T16:49:36;5.32;;;1.15;;
25263;SDS011;13211;51.796;5.808;2022-08-23T16:52:09;6.35;;;1.00;;
25263;SDS011;13211;51.796;5.808;2022-08-23T16:54:37;24.02;;;2.00;;
25263;SDS011;13211;51.796;5.808;2022-08-23T16:57:13;98.53;;;11.20;;
25263;SDS011;13211;51.796;5.808;2022-08-23T16:59:46;44.53;;;8.73;;
25263;SDS011;13211;51.796;5.808;2022-08-23T17:02:29;46.45;;;10.23;;
25263;SDS011;13211;51.796;5.808;2022-08-23T17:04:59;17.63;;;6.00;;
25263;SDS011;13211;51.796;5.808;2022-08-23T17:07:28;12.18;;;3.13;;
25263;SDS011;13211;51.796;5.808;2022-08-23T17:09:58;49.97;;;13.00;;
25263;SDS011;13211;51.796;5.808;2022-08-23T17:12:26;28.00;;;7.07;;
25263;SDS011;13211;51.796;5.808;2022-08-23T17:14:56;6.90;;;1.70;;
25263;SDS011;13211;51.796;5.808;2022-08-23T17:17:27;12.52;;;1.80;;
25263;SDS011;13211;51.796;5.808;2022-08-23T17:20:06;3.80;;;1.30;;
25263;SDS011;13211;51.796;5.808;2022-08-23T17:22:35;7.05;;;1.10;;
25263;SDS011;13211;51.796;5.808;2022-08-23T17:25:03;4.90;;;1.15;;
25263;SDS011;13211;51.796;5.808;2022-08-23T17:27:36;4.78;;;0.90;;
25263;SDS011;13211;51.796;5.808;2022-08-23T17:30:12;3.15;;;0.85;;
25263;SDS011;13211;51.796;5.808;2022-08-23T17:32:44;2.92;;;1.00;;
25263;SDS011;13211;51.796;5.808;2022-08-23T17:35:16;5.22;;;1.10;;
25263;SDS011;13211;51.796;5.808;2022-08-23T17:37:48;3.40;;;1.15;;
25263;SDS011;13211;51.796;5.808;2022-08-23T17:40:21;3.75;;;1.10;;
25263;SDS011;13211;51.796;5.808;2022-08-23T17:42:57;2.47;;;1.02;;
25263;SDS011;13211;51.796;5.808;2022-08-23T17:45:31;3.42;;;0.98;;